Portada
METAR-TAF:

METAR-TAF

Aeropuertos :

La Palma, España

Aeropuerto de La Palma

latitud: 28-37N, longitud: 017-45W, altitud: 29 m

Observación

El informe se hizo hace 22 minutos, a las 10:30 UTC
Viento 13 kt del norte-noreste, variando entre norte y este-noreste
Temperatura 24°C
Humedad 69%
Presión 1019 hPa
Visibilidad 10 km o más
Nubes dispersas a una altura de 3500 ft

METAR: GCLA 181030Z 03013KT 360V060 9999 SCT035 24/18 Q1019

Hora: 11:52 (10:52 UTC)

Pronóstico

El informe se hizo hace 2 horas y 52 minutos, a las 08:00 UTC
Pronóstico válido del 18 a las 09 UTC al 19 a las 09 UTC
Viento 17 kt del norte-noreste
Visibilidad 10 km o más
Nubes dispersas a una altura de 3500 ft
Probabilidad 30% :
Temporalmente
del 18 a las 09 UTC al 19 a las 09 UTC
Viento 17 kt del norte-noreste con ráfagas de 27 kt

TAF: GCLA 180800Z 1809/1909 02017KT 9999 SCT035 TX24/1814Z TN21/1905Z PROB30 TEMPO 1809/1909 02017G27KT

Observaciones y pronósticos meteorológicos de más de 4000 aeropuertos (mensajes METAR y TAF).

Los puntos amarillos y rojos representan las estaciones disponibles.

Ponga el ratón en el punto deseado para ver el nombre de la estación.

Haga clic para ver las observaciones y los pronósticos meteorológicos.

Para cambiar el mapa : haga clic en los botones verdes con una cruz de color negro para hacer un zoom, en el botón verde con un guión para alejar o en las flechas verdes para mapas adyacentes.


METAR-TAF: